Time;durP1;ratioP1;P1;durP2;ratioP2;P2;SDS_P1;SDS_P2;PMS_P1;PMS_P2;Temp;Humidity;BMP_temperature;BMP_pressure;BME280_temperature;BME280_humidity;BME280_pressure;Samples;Min_cycle;Max_cycle;Signal;HPM_P1;HPM_P2
2022/05/09 00:01:35;;;;;;;6.38;2.92;;;;;;;;;;4989595;28;20459;-70
2022/05/09 00:04:01;;;;;;;7.53;3.20;;;;;;;;;;4990328;28;20398;-69
2022/05/09 00:06:26;;;;;;;5.93;3.00;;;;;;;;;;4991003;28;20034;-69
2022/05/09 00:08:52;;;;;;;7.40;3.50;;;;;;;;;;4972895;28;20072;-69
2022/05/09 00:11:17;;;;;;;8.52;3.33;;;;;;;;;;4990371;28;20467;-68
2022/05/09 00:13:43;;;;;;;10.52;3.35;;;;;;;;;;4990822;28;20030;-69
2022/05/09 00:16:08;;;;;;;9.40;2.90;;;;;;;;;;4988973;28;20033;-68
2022/05/09 00:18:34;;;;;;;6.85;3.10;;;;;;;;;;4985945;28;20037;-70
2022/05/09 00:20:59;;;;;;;9.77;3.75;;;;;;;;;;4973110;28;20034;-69
2022/05/09 00:23:25;;;;;;;11.80;3.30;;;;;;;;;;4976810;28;20473;-69
2022/05/09 00:25:50;;;;;;;11.30;3.30;;;;;;;;;;4991243;28;20041;-68
2022/05/09 00:28:16;;;;;;;9.90;3.53;;;;;;;;;;4989462;28;20504;-68
2022/05/09 00:30:41;;;;;;;8.90;3.40;;;;;;;;;;4986992;28;20023;-68
2022/05/09 00:33:07;;;;;;;9.00;3.47;;;;;;;;;;4988949;28;20372;-68
2022/05/09 00:35:32;;;;;;;9.75;3.47;;;;;;;;;;4986375;28;20031;-68
2022/05/09 00:37:58;;;;;;;6.43;3.10;;;;;;;;;;4992362;28;20475;-68
2022/05/09 00:40:23;;;;;;;10.43;3.47;;;;;;;;;;4988115;28;20201;-68
2022/05/09 00:42:51;;;;;;;9.88;3.58;;;;;;;;;;4991578;28;20066;-68
2022/05/09 00:45:24;;;;;;;9.32;3.30;;;;;;;;;;4987736;28;20037;-67
2022/05/09 00:47:50;;;;;;;10.88;3.25;;;;;;;;;;4991991;28;20034;-69
2022/05/09 00:50:21;;;;;;;9.68;3.60;;;;;;;;;;4989110;28;20042;-69
2022/05/09 00:52:55;;;;;;;8.00;3.00;;;;;;;;;;4992142;28;20054;-67
2022/05/09 00:55:26;;;;;;;9.13;3.40;;;;;;;;;;4989131;28;20042;-67
2022/05/09 00:58:12;;;;;;;9.13;3.28;;;;;;;;;;4989609;28;20042;-69
2022/05/09 01:00:39;;;;;;;10.27;3.10;;;;;;;;;;4988702;28;20070;-69
2022/05/09 01:03:16;;;;;;;9.65;3.55;;;;;;;;;;4990807;28;20035;-69
2022/05/09 01:05:45;;;;;;;7.82;3.00;;;;;;;;;;4989562;28;20092;-69
2022/05/09 01:08:11;;;;;;;10.38;3.33;;;;;;;;;;4990043;28;20030;-68
2022/05/09 01:10:39;;;;;;;8.60;3.25;;;;;;;;;;4990108;28;20033;-69
2022/05/09 01:13:08;;;;;;;9.38;3.00;;;;;;;;;;4990658;28;20034;-69
2022/05/09 01:15:35;;;;;;;8.50;3.17;;;;;;;;;;4988610;28;20484;-68
2022/05/09 01:18:03;;;;;;;10.70;3.50;;;;;;;;;;4970654;28;20034;-69
2022/05/09 01:20:29;;;;;;;11.45;2.83;;;;;;;;;;4990874;28;20390;-69
2022/05/09 01:22:59;;;;;;;5.68;3.20;;;;;;;;;;4990202;28;20034;-68
2022/05/09 01:25:25;;;;;;;10.70;3.30;;;;;;;;;;4987675;28;20101;-69
2022/05/09 01:27:50;;;;;;;7.85;3.50;;;;;;;;;;4989331;28;20467;-68
2022/05/09 01:30:42;;;;;;;10.18;3.08;;;;;;;;;;4990123;28;20045;-68
2022/05/09 01:33:12;;;;;;;13.88;4.15;;;;;;;;;;4989266;28;20475;-69
2022/05/09 01:35:48;;;;;;;8.68;3.10;;;;;;;;;;4990616;28;20046;-69
2022/05/09 01:38:27;;;;;;;8.80;3.10;;;;;;;;;;4991565;28;20074;-66
2022/05/09 01:40:52;;;;;;;7.40;3.45;;;;;;;;;;4995439;28;20038;-67
2022/05/09 01:43:41;;;;;;;11.55;3.60;;;;;;;;;;4992981;28;20053;-67
2022/05/09 01:46:10;;;;;;;8.90;3.53;;;;;;;;;;4981231;28;20045;-69
2022/05/09 01:51:19;;;;;;;7.28;3.30;;;;;;;;;;4993361;28;20137;-69
2022/05/09 01:53:50;;;;;;;8.07;3.05;;;;;;;;;;4994975;28;20057;-68
2022/05/09 01:56:17;;;;;;;7.80;2.95;;;;;;;;;;4992114;28;20034;-67
2022/05/09 01:58:43;;;;;;;8.02;3.22;;;;;;;;;;4995147;28;20038;-69
2022/05/09 02:01:08;;;;;;;7.85;3.20;;;;;;;;;;4991804;28;20041;-69
2022/05/09 02:03:35;;;;;;;10.57;3.47;;;;;;;;;;4993041;28;20646;-69
2022/05/09 02:06:01;;;;;;;5.95;3.15;;;;;;;;;;4988141;28;20026;-67
2022/05/09 02:08:27;;;;;;;7.57;2.97;;;;;;;;;;4957797;28;20113;-67
2022/05/09 02:10:52;;;;;;;9.45;3.33;;;;;;;;;;4985812;28;20122;-69
2022/05/09 02:13:18;;;;;;;9.80;3.35;;;;;;;;;;4993797;28;20034;-66
2022/05/09 02:15:44;;;;;;;11.98;3.80;;;;;;;;;;4991050;28;20459;-69
2022/05/09 02:18:09;;;;;;;10.18;3.30;;;;;;;;;;4993975;28;20034;-68
2022/05/09 02:20:34;;;;;;;7.22;3.58;;;;;;;;;;4985251;28;20121;-69
2022/05/09 02:23:00;;;;;;;8.13;3.60;;;;;;;;;;4985815;28;20101;-68
2022/05/09 02:25:31;;;;;;;10.90;3.40;;;;;;;;;;4978377;28;20042;-67
2022/05/09 02:28:01;;;;;;;11.95;3.60;;;;;;;;;;4994055;28;20368;-69
2022/05/09 02:30:27;;;;;;;9.43;3.40;;;;;;;;;;4992344;28;20089;-68
2022/05/09 02:32:53;;;;;;;10.57;3.42;;;;;;;;;;4978191;28;20030;-68
2022/05/09 02:35:20;;;;;;;9.40;3.30;;;;;;;;;;4992263;28;20097;-67
2022/05/09 02:37:47;;;;;;;11.20;3.15;;;;;;;;;;4992727;28;20052;-68
2022/05/09 02:40:13;;;;;;;13.13;3.70;;;;;;;;;;4993283;28;20042;-69
2022/05/09 02:42:38;;;;;;;11.88;3.45;;;;;;;;;;4992977;28;20111;-69
2022/05/09 02:45:04;;;;;;;8.63;3.30;;;;;;;;;;4993008;28;20034;-68
2022/05/09 02:47:30;;;;;;;7.82;3.53;;;;;;;;;;4989914;28;20041;-69
2022/05/09 02:49:55;;;;;;;10.90;3.53;;;;;;;;;;4991858;28;20065;-69
2022/05/09 02:52:21;;;;;;;8.30;3.42;;;;;;;;;;4991714;28;20495;-67
2022/05/09 02:54:46;;;;;;;9.73;3.40;;;;;;;;;;4992334;28;20034;-69
2022/05/09 02:57:12;;;;;;;10.05;3.67;;;;;;;;;;4989859;28;20092;-68
2022/05/09 02:59:37;;;;;;;9.70;3.50;;;;;;;;;;4990595;28;20050;-69
2022/05/09 03:02:03;;;;;;;11.15;3.60;;;;;;;;;;4992243;28;20031;-68
2022/05/09 03:04:41;;;;;;;7.28;3.40;;;;;;;;;;4990526;28;20034;-69
2022/05/09 03:07:13;;;;;;;9.48;3.40;;;;;;;;;;4992022;28;20040;-68
2022/05/09 03:09:41;;;;;;;7.80;3.35;;;;;;;;;;4992065;28;20546;-68
2022/05/09 03:12:07;;;;;;;13.02;3.67;;;;;;;;;;4992874;28;20466;-68
2022/05/09 03:14:34;;;;;;;9.05;3.95;;;;;;;;;;4992768;28;20030;-68
2022/05/09 03:16:59;;;;;;;8.82;3.72;;;;;;;;;;4990932;28;20030;-68
2022/05/09 03:19:25;;;;;;;11.85;3.60;;;;;;;;;;4991223;28;20053;-68
2022/05/09 03:21:51;;;;;;;10.00;3.60;;;;;;;;;;4992578;28;20080;-68
2022/05/09 03:24:17;;;;;;;10.30;3.40;;;;;;;;;;4991345;28;20100;-68
2022/05/09 03:26:43;;;;;;;9.07;4.18;;;;;;;;;;4972476;28;20046;-68
2022/05/09 03:29:09;;;;;;;16.15;3.85;;;;;;;;;;4991756;28;20034;-68
2022/05/09 03:31:34;;;;;;;11.57;3.97;;;;;;;;;;4991994;28;20196;-68
2022/05/09 03:33:59;;;;;;;12.88;4.03;;;;;;;;;;4992142;28;20034;-69
2022/05/09 03:36:25;;;;;;;8.63;3.45;;;;;;;;;;4990356;28;20055;-71
2022/05/09 03:38:50;;;;;;;13.55;4.13;;;;;;;;;;4990246;28;20034;-69
2022/05/09 03:41:16;;;;;;;9.10;3.42;;;;;;;;;;4993318;28;20061;-68
2022/05/09 03:43:41;;;;;;;14.93;3.92;;;;;;;;;;4973636;28;20042;-69
2022/05/09 03:46:07;;;;;;;9.18;4.03;;;;;;;;;;4991957;28;20026;-69
2022/05/09 03:48:32;;;;;;;13.68;4.60;;;;;;;;;;4991355;28;20475;-68
2022/05/09 03:51:01;;;;;;;9.90;4.05;;;;;;;;;;4992057;28;20030;-69
2022/05/09 03:53:27;;;;;;;11.65;3.78;;;;;;;;;;4975994;28;20042;-68
2022/05/09 03:55:52;;;;;;;11.07;4.13;;;;;;;;;;4991420;28;20168;-69
2022/05/09 03:58:18;;;;;;;9.23;3.85;;;;;;;;;;4975425;28;20129;-68
2022/05/09 04:00:44;;;;;;;26.80;5.40;;;;;;;;;;4990739;28;20026;-70
2022/05/09 04:03:09;;;;;;;21.08;5.00;;;;;;;;;;4987165;28;20034;-69
2022/05/09 04:05:35;;;;;;;12.07;4.00;;;;;;;;;;4984425;28;20112;-66
2022/05/09 04:08:04;;;;;;;14.65;4.75;;;;;;;;;;4989609;28;20053;-68
2022/05/09 04:10:33;;;;;;;9.93;4.10;;;;;;;;;;4991844;28;20034;-68
2022/05/09 04:12:59;;;;;;;12.73;4.03;;;;;;;;;;4974691;28;20030;-69
2022/05/09 04:18:09;;;;;;;9.68;3.97;;;;;;;;;;4987342;28;20509;-67
2022/05/09 04:20:37;;;;;;;10.88;4.05;;;;;;;;;;4970405;28;20122;-68
2022/05/09 04:23:03;;;;;;;13.05;4.47;;;;;;;;;;4986576;28;20034;-69
2022/05/09 04:25:31;;;;;;;14.88;4.50;;;;;;;;;;4974222;28;20463;-68
2022/05/09 04:27:58;;;;;;;9.27;3.63;;;;;;;;;;4988142;28;20034;-68
2022/05/09 04:30:24;;;;;;;10.48;3.90;;;;;;;;;;4991106;28;20035;-66
2022/05/09 04:32:50;;;;;;;9.75;4.28;;;;;;;;;;4988797;28;20022;-69
2022/05/09 04:35:20;;;;;;;14.02;4.40;;;;;;;;;;4992660;28;20068;-69
2022/05/09 04:37:47;;;;;;;16.00;4.68;;;;;;;;;;4990274;28;20221;-69
2022/05/09 04:40:17;;;;;;;13.15;4.40;;;;;;;;;;4989354;28;20042;-69
2022/05/09 04:42:43;;;;;;;12.88;4.28;;;;;;;;;;4988965;28;20577;-69
2022/05/09 04:45:11;;;;;;;13.65;4.15;;;;;;;;;;4991095;28;20031;-71
2022/05/09 04:47:36;;;;;;;10.02;3.97;;;;;;;;;;4989889;28;20109;-69
2022/05/09 04:50:02;;;;;;;13.02;4.78;;;;;;;;;;4990424;28;20121;-68
2022/05/09 04:52:28;;;;;;;8.30;4.47;;;;;;;;;;4985407;28;20069;-68
2022/05/09 04:54:53;;;;;;;12.45;4.47;;;;;;;;;;4992298;28;20065;-70
2022/05/09 04:57:19;;;;;;;11.10;4.60;;;;;;;;;;4990488;28;20038;-70
2022/05/09 04:59:44;;;;;;;9.98;3.70;;;;;;;;;;4989722;28;20609;-69
2022/05/09 05:02:10;;;;;;;10.57;4.18;;;;;;;;;;4991305;28;20034;-68
2022/05/09 05:04:35;;;;;;;11.70;4.25;;;;;;;;;;4988968;28;20101;-68
2022/05/09 05:07:00;;;;;;;10.68;4.25;;;;;;;;;;4991843;28;20113;-68
2022/05/09 05:09:26;;;;;;;11.48;4.85;;;;;;;;;;4986846;28;20022;-67
2022/05/09 05:11:51;;;;;;;8.45;4.38;;;;;;;;;;4984562;28;20034;-70
2022/05/09 05:14:17;;;;;;;9.30;4.22;;;;;;;;;;4987724;28;20122;-71
2022/05/09 05:17:00;;;;;;;9.82;3.78;;;;;;;;;;4993564;28;20030;-71
2022/05/09 05:19:31;;;;;;;12.48;4.20;;;;;;;;;;4984507;28;20121;-69
2022/05/09 05:21:59;;;;;;;8.88;3.90;;;;;;;;;;4987737;28;20457;-73
2022/05/09 05:24:25;;;;;;;11.00;4.50;;;;;;;;;;4987608;28;20034;-71
2022/05/09 05:26:52;;;;;;;11.75;4.55;;;;;;;;;;4995335;28;20360;-73
2022/05/09 05:29:17;;;;;;;8.77;4.30;;;;;;;;;;4994910;28;20387;-73
2022/05/09 05:31:44;;;;;;;12.30;4.28;;;;;;;;;;4990297;28;20037;-72
2022/05/09 05:34:09;;;;;;;17.77;5.30;;;;;;;;;;4986514;28;20464;-73
2022/05/09 05:36:35;;;;;;;11.77;4.22;;;;;;;;;;4994165;28;20220;-72
2022/05/09 05:39:00;;;;;;;15.48;4.40;;;;;;;;;;4989993;28;20169;-70
2022/05/09 05:41:27;;;;;;;10.23;4.45;;;;;;;;;;4994770;28;20027;-72
2022/05/09 05:43:52;;;;;;;13.13;4.22;;;;;;;;;;4993642;28;20052;-74
2022/05/09 05:46:19;;;;;;;10.75;4.75;;;;;;;;;;4992325;28;20386;-72
2022/05/09 05:48:44;;;;;;;12.05;4.70;;;;;;;;;;4993353;28;20030;-72
2022/05/09 05:51:11;;;;;;;14.05;4.88;;;;;;;;;;4995231;28;20026;-74
2022/05/09 05:53:36;;;;;;;12.88;5.05;;;;;;;;;;4992808;28;20039;-73
2022/05/09 05:56:02;;;;;;;14.30;4.45;;;;;;;;;;4994886;28;20093;-73
2022/05/09 05:58:28;;;;;;;14.20;4.88;;;;;;;;;;4993186;28;20030;-71
2022/05/09 06:00:57;;;;;;;11.35;4.47;;;;;;;;;;4993133;28;20041;-73
2022/05/09 06:03:22;;;;;;;11.00;4.68;;;;;;;;;;4993717;28;20419;-74
2022/05/09 06:05:48;;;;;;;13.63;4.78;;;;;;;;;;4993913;28;20057;-73
2022/05/09 06:08:14;;;;;;;9.02;4.18;;;;;;;;;;4990605;28;20457;-70
2022/05/09 06:10:39;;;;;;;12.82;5.00;;;;;;;;;;4980430;28;20038;-73
2022/05/09 06:13:06;;;;;;;12.70;5.30;;;;;;;;;;4967249;28;20403;-67
2022/05/09 06:15:32;;;;;;;14.27;5.50;;;;;;;;;;4993752;28;20065;-73
2022/05/09 06:18:03;;;;;;;14.00;4.85;;;;;;;;;;4979694;28;20118;-70
2022/05/09 06:20:32;;;;;;;12.32;4.93;;;;;;;;;;4982013;28;20475;-66
2022/05/09 06:22:59;;;;;;;11.70;4.85;;;;;;;;;;4986631;28;20041;-73
2022/05/09 06:25:26;;;;;;;10.60;4.88;;;;;;;;;;4975930;28;20034;-73
2022/05/09 06:27:52;;;;;;;16.08;5.30;;;;;;;;;;4987851;28;20038;-72
2022/05/09 06:30:20;;;;;;;14.25;4.82;;;;;;;;;;4993198;28;20380;-71
2022/05/09 06:32:46;;;;;;;13.20;4.57;;;;;;;;;;4981188;28;20042;-73
2022/05/09 06:35:20;;;;;;;10.35;4.63;;;;;;;;;;4981159;28;20049;-74
2022/05/09 06:37:47;;;;;;;12.65;4.90;;;;;;;;;;4993361;28;20035;-71
2022/05/09 06:40:12;;;;;;;14.75;4.90;;;;;;;;;;4992418;28;20045;-72
2022/05/09 06:42:38;;;;;;;13.57;5.10;;;;;;;;;;4988393;28;20494;-72
2022/05/09 06:45:05;;;;;;;10.70;5.00;;;;;;;;;;4982662;28;20057;-74
2022/05/09 06:47:30;;;;;;;10.57;4.63;;;;;;;;;;4974144;28;20035;-71
2022/05/09 06:50:04;;;;;;;13.48;4.72;;;;;;;;;;4984542;28;20042;-73
2022/05/09 06:52:29;;;;;;;14.52;5.07;;;;;;;;;;4991805;28;20114;-68
2022/05/09 06:54:54;;;;;;;10.45;4.82;;;;;;;;;;4988954;28;20523;-70
2022/05/09 06:57:21;;;;;;;10.30;5.07;;;;;;;;;;4993542;28;20030;-68
2022/05/09 06:59:47;;;;;;;13.15;4.95;;;;;;;;;;4989121;28;20045;-69
2022/05/09 07:02:13;;;;;;;10.23;4.57;;;;;;;;;;4991074;28;20034;-71
2022/05/09 07:04:39;;;;;;;14.50;4.93;;;;;;;;;;4989266;28;20058;-70
2022/05/09 07:07:05;;;;;;;14.00;5.57;;;;;;;;;;4991172;28;20041;-70
2022/05/09 07:09:31;;;;;;;13.20;4.88;;;;;;;;;;4992422;28;20038;-68
2022/05/09 07:11:56;;;;;;;9.68;4.40;;;;;;;;;;4985320;28;20061;-71
2022/05/09 07:14:22;;;;;;;15.02;5.03;;;;;;;;;;4987937;28;20034;-71
2022/05/09 07:16:47;;;;;;;15.43;5.28;;;;;;;;;;4973909;28;20400;-70
2022/05/09 07:19:19;;;;;;;9.27;5.05;;;;;;;;;;4981386;28;20034;-70
2022/05/09 07:21:44;;;;;;;10.40;4.80;;;;;;;;;;4972018;28;20094;-71
2022/05/09 07:24:10;;;;;;;9.77;4.97;;;;;;;;;;4990564;28;20434;-71
2022/05/09 07:26:36;;;;;;;12.30;5.22;;;;;;;;;;4981874;28;20118;-73
2022/05/09 07:29:07;;;;;;;11.35;4.97;;;;;;;;;;4992519;28;20080;-72
2022/05/09 07:31:33;;;;;;;10.13;5.10;;;;;;;;;;4985953;28;20117;-68
2022/05/09 07:33:59;;;;;;;9.35;5.00;;;;;;;;;;4987915;28;20041;-71
2022/05/09 07:36:24;;;;;;;10.93;5.20;;;;;;;;;;4992082;28;20030;-70
2022/05/09 07:38:51;;;;;;;11.88;5.15;;;;;;;;;;4969697;28;20040;-70
2022/05/09 07:41:16;;;;;;;10.40;5.07;;;;;;;;;;4973934;28;20446;-70
2022/05/09 07:43:42;;;;;;;15.50;5.47;;;;;;;;;;4989471;28;20046;-71
2022/05/09 07:46:07;;;;;;;15.05;5.22;;;;;;;;;;4990812;28;20034;-72
2022/05/09 07:48:32;;;;;;;15.32;5.20;;;;;;;;;;4972055;28;20477;-70
2022/05/09 07:50:59;;;;;;;11.20;5.20;;;;;;;;;;4974290;28;20066;-71
2022/05/09 07:53:26;;;;;;;15.63;5.63;;;;;;;;;;4990324;28;20038;-71
2022/05/09 07:55:52;;;;;;;15.52;5.40;;;;;;;;;;4987970;28;20125;-69
2022/05/09 07:58:18;;;;;;;14.63;5.50;;;;;;;;;;4982961;28;20402;-72
2022/05/09 08:00:45;;;;;;;13.27;5.25;;;;;;;;;;4981881;28;20577;-71
2022/05/09 08:03:23;;;;;;;19.90;5.78;;;;;;;;;;4987160;28;20030;-72
2022/05/09 08:05:49;;;;;;;15.93;5.43;;;;;;;;;;4973311;28;20510;-72
2022/05/09 08:08:15;;;;;;;13.32;5.07;;;;;;;;;;4987071;28;20030;-71
2022/05/09 08:10:42;;;;;;;12.60;5.13;;;;;;;;;;4982129;28;20553;-72
2022/05/09 08:13:09;;;;;;;10.50;5.05;;;;;;;;;;4991354;28;20058;-74
2022/05/09 08:15:36;;;;;;;11.57;4.95;;;;;;;;;;4974420;28;20049;-72
2022/05/09 08:18:02;;;;;;;10.95;4.75;;;;;;;;;;4973866;28;20069;-70
2022/05/09 08:20:30;;;;;;;12.68;4.80;;;;;;;;;;4975093;28;20030;-71
2022/05/09 08:23:07;;;;;;;14.50;4.80;;;;;;;;;;4973342;28;20066;-73
2022/05/09 08:25:34;;;;;;;14.70;5.25;;;;;;;;;;4989373;28;20035;-68
2022/05/09 08:28:01;;;;;;;10.93;5.22;;;;;;;;;;4988319;28;20034;-69
2022/05/09 08:30:32;;;;;;;11.82;5.00;;;;;;;;;;4991726;28;20468;-69
2022/05/09 08:32:58;;;;;;;10.23;4.85;;;;;;;;;;4981747;28;20034;-70
2022/05/09 08:35:24;;;;;;;10.75;5.13;;;;;;;;;;4992387;28;20472;-71
2022/05/09 08:37:49;;;;;;;11.77;4.93;;;;;;;;;;4983389;28;20027;-70
2022/05/09 08:40:15;;;;;;;10.35;4.78;;;;;;;;;;4984817;28;20069;-75
2022/05/09 08:43:04;;;;;;;10.10;4.90;;;;;;;;;;4987831;28;20046;-72
2022/05/09 08:45:35;;;;;;;13.18;5.00;;;;;;;;;;4972865;28;20039;-69
2022/05/09 08:48:15;;;;;;;7.97;4.90;;;;;;;;;;4972391;28;20391;-70
2022/05/09 08:51:05;;;;;;;10.57;5.20;;;;;;;;;;4990006;28;20027;-67
2022/05/09 08:53:35;;;;;;;14.10;5.22;;;;;;;;;;4987227;28;20271;-67
2022/05/09 08:56:01;;;;;;;12.97;5.23;;;;;;;;;;4992509;28;20034;-69
2022/05/09 08:58:41;;;;;;;11.50;5.32;;;;;;;;;;4994098;28;20342;-70
2022/05/09 09:01:28;;;;;;;11.57;4.80;;;;;;;;;;4976614;28;20039;-70
2022/05/09 09:04:13;;;;;;;10.60;5.10;;;;;;;;;;4990821;28;20041;-70
2022/05/09 09:06:41;;;;;;;10.10;5.50;;;;;;;;;;4992374;28;20040;-70
2022/05/09 09:09:28;;;;;;;10.27;5.05;;;;;;;;;;4978372;28;20070;-71
2022/05/09 09:12:15;;;;;;;13.98;5.40;;;;;;;;;;4990779;28;20463;-70
2022/05/09 09:14:49;;;;;;;11.40;5.53;;;;;;;;;;4984435;28;20378;-70
2022/05/09 09:17:52;;;;;;;11.93;5.40;;;;;;;;;;4986658;28;20030;-70
2022/05/09 09:20:30;;;;;;;15.35;5.65;;;;;;;;;;4977409;28;20386;-70
2022/05/09 09:23:14;;;;;;;12.00;5.80;;;;;;;;;;4990820;28;20371;-72
2022/05/09 09:25:52;;;;;;;9.77;5.40;;;;;;;;;;4985928;28;20104;-70
2022/05/09 09:28:28;;;;;;;10.75;5.60;;;;;;;;;;4995649;28;20491;-70
2022/05/09 09:30:55;;;;;;;14.25;5.60;;;;;;;;;;4992256;28;20033;-70
2022/05/09 09:33:20;;;;;;;13.43;5.70;;;;;;;;;;4995586;28;20038;-69
2022/05/09 09:35:53;;;;;;;10.88;5.45;;;;;;;;;;4992884;28;20034;-71
2022/05/09 09:38:34;;;;;;;15.15;5.65;;;;;;;;;;4995545;28;20031;-71
2022/05/09 09:41:20;;;;;;;17.38;5.90;;;;;;;;;;4993528;28;20031;-70
2022/05/09 09:43:48;;;;;;;11.00;5.50;;;;;;;;;;4993320;28;20204;-70
2022/05/09 09:46:13;;;;;;;13.48;5.80;;;;;;;;;;4995316;28;20089;-69
2022/05/09 09:48:39;;;;;;;9.75;6.00;;;;;;;;;;4991884;28;20422;-71
2022/05/09 09:51:15;;;;;;;12.80;6.07;;;;;;;;;;4992205;28;20037;-71
2022/05/09 09:53:49;;;;;;;14.25;6.43;;;;;;;;;;4994464;28;20038;-71
2022/05/09 09:56:21;;;;;;;11.60;5.93;;;;;;;;;;4993729;28;20432;-69
2022/05/09 09:58:58;;;;;;;17.80;6.32;;;;;;;;;;4992969;28;20042;-70
2022/05/09 10:01:32;;;;;;;10.80;5.57;;;;;;;;;;4989154;28;20034;-70
2022/05/09 10:04:11;;;;;;;10.90;5.75;;;;;;;;;;4994351;28;20058;-69
2022/05/09 10:07:01;;;;;;;12.43;6.10;;;;;;;;;;4993315;28;20475;-70
2022/05/09 10:09:29;;;;;;;18.77;5.90;;;;;;;;;;4994168;28;20042;-71
2022/05/09 10:12:14;;;;;;;12.90;6.03;;;;;;;;;;4993784;28;20034;-67
2022/05/09 10:14:40;;;;;;;10.80;5.90;;;;;;;;;;4983602;28;20102;-71
2022/05/09 10:17:20;;;;;;;12.55;5.68;;;;;;;;;;4993870;28;20077;-68
2022/05/09 10:19:46;;;;;;;13.10;5.88;;;;;;;;;;4975201;28;20043;-68
2022/05/09 10:25:22;;;;;;;11.00;5.63;;;;;;;;;;4981467;28;20403;-69
2022/05/09 10:28:07;;;;;;;11.88;5.75;;;;;;;;;;4988742;28;20034;-67
2022/05/09 10:30:36;;;;;;;12.73;5.43;;;;;;;;;;4984865;28;20502;-68
2022/05/09 10:33:01;;;;;;;11.82;5.72;;;;;;;;;;4979368;28;20117;-69
2022/05/09 10:35:34;;;;;;;14.73;5.90;;;;;;;;;;4980880;28;20158;-67
2022/05/09 10:38:05;;;;;;;10.60;6.03;;;;;;;;;;4976094;28;20041;-69
2022/05/09 10:40:42;;;;;;;12.55;5.60;;;;;;;;;;4970174;28;20031;-68
2022/05/09 10:43:17;;;;;;;12.73;6.50;;;;;;;;;;4993246;28;20053;-67
2022/05/09 10:45:50;;;;;;;10.65;6.10;;;;;;;;;;4991934;28;20035;-70
2022/05/09 10:48:44;;;;;;;13.05;5.50;;;;;;;;;;4994384;28;20057;-71
2022/05/09 10:51:19;;;;;;;12.02;5.70;;;;;;;;;;4978874;28;20129;-71
2022/05/09 10:53:55;;;;;;;9.27;5.80;;;;;;;;;;4973388;28;20102;-72
2022/05/09 10:56:26;;;;;;;12.98;6.13;;;;;;;;;;4982312;28;20034;-71
2022/05/09 10:59:30;;;;;;;7.70;5.15;;;;;;;;;;4993545;28;20034;-72
2022/05/09 11:02:12;;;;;;;9.05;5.47;;;;;;;;;;4981194;28;20061;-71
2022/05/09 11:04:37;;;;;;;11.95;4.85;;;;;;;;;;4973768;28;20078;-71
2022/05/09 11:07:21;;;;;;;7.85;5.07;;;;;;;;;;4988635;28;20038;-69
2022/05/09 11:10:17;;;;;;;8.20;4.80;;;;;;;;;;4992316;28;20038;-67
2022/05/09 11:13:12;;;;;;;8.85;5.25;;;;;;;;;;4973318;28;20375;-73
2022/05/09 11:15:46;;;;;;;8.63;5.13;;;;;;;;;;4986123;28;20468;-74
2022/05/09 11:18:14;;;;;;;9.57;5.32;;;;;;;;;;4979462;28;20070;-71
2022/05/09 11:21:06;;;;;;;9.57;5.20;;;;;;;;;;4985436;28;20038;-72
2022/05/09 11:23:34;;;;;;;10.25;5.40;;;;;;;;;;4991643;28;20550;-73
2022/05/09 11:26:22;;;;;;;11.45;5.53;;;;;;;;;;4989574;28;20041;-73
2022/05/09 11:29:09;;;;;;;9.75;5.75;;;;;;;;;;4991746;28;20117;-72
2022/05/09 11:31:44;;;;;;;8.57;5.68;;;;;;;;;;4983528;28;20070;-70
2022/05/09 11:34:18;;;;;;;8.68;5.30;;;;;;;;;;4993420;28;20045;-72
2022/05/09 11:36:52;;;;;;;10.85;5.32;;;;;;;;;;4981727;28;20089;-72
2022/05/09 11:39:47;;;;;;;9.27;5.10;;;;;;;;;;4973237;28;20030;-71
2022/05/09 11:45:46;;;;;;;8.55;5.13;;;;;;;;;;4980280;28;20133;-72
2022/05/09 11:48:31;;;;;;;8.32;5.10;;;;;;;;;;4993589;28;20038;-74
2022/05/09 11:51:19;;;;;;;9.48;5.15;;;;;;;;;;4992202;28;20038;-73
2022/05/09 11:53:54;;;;;;;9.85;4.82;;;;;;;;;;4974341;28;20074;-72
2022/05/09 11:56:20;;;;;;;7.22;4.80;;;;;;;;;;4987920;28;20117;-73
2022/05/09 11:58:45;;;;;;;9.27;4.63;;;;;;;;;;4992366;28;20031;-71
2022/05/09 12:01:12;;;;;;;8.88;5.15;;;;;;;;;;4991961;28;20081;-61
2022/05/09 12:03:40;;;;;;;7.60;5.28;;;;;;;;;;4990902;28;20034;-62
2022/05/09 12:06:12;;;;;;;8.85;4.90;;;;;;;;;;4988918;28;20038;-62
2022/05/09 12:08:48;;;;;;;11.65;4.65;;;;;;;;;;4988549;28;20031;-62
2022/05/09 12:11:27;;;;;;;6.80;4.00;;;;;;;;;;4973759;28;20053;-63
2022/05/09 12:13:55;;;;;;;8.07;4.80;;;;;;;;;;4969629;28;20037;-62
2022/05/09 12:16:35;;;;;;;9.63;4.78;;;;;;;;;;4991871;28;20042;-62
2022/05/09 12:19:32;;;;;;;8.30;4.60;;;;;;;;;;4990635;28;20034;-63
2022/05/09 12:22:35;;;;;;;9.60;5.20;;;;;;;;;;4985939;28;20502;-63
2022/05/09 12:25:03;;;;;;;9.50;4.85;;;;;;;;;;4989764;28;20102;-63
2022/05/09 12:28:00;;;;;;;7.85;4.78;;;;;;;;;;4980210;28;20396;-62
2022/05/09 12:30:52;;;;;;;7.13;4.32;;;;;;;;;;4987152;28;20034;-63
2022/05/09 12:33:20;;;;;;;8.48;4.13;;;;;;;;;;4987903;28;20034;-62
2022/05/09 12:35:47;;;;;;;6.97;4.45;;;;;;;;;;4971803;28;20027;-64
2022/05/09 12:38:13;;;;;;;6.18;4.18;;;;;;;;;;4972653;28;20046;-63
2022/05/09 12:40:40;;;;;;;8.30;3.60;;;;;;;;;;4991182;28;20031;-65
2022/05/09 12:43:07;;;;;;;6.07;3.67;;;;;;;;;;4989346;28;20089;-62
2022/05/09 12:45:34;;;;;;;7.63;3.50;;;;;;;;;;4992114;28;20027;-62
2022/05/09 12:48:01;;;;;;;5.38;3.72;;;;;;;;;;4989607;28;20033;-62
2022/05/09 12:50:30;;;;;;;7.63;3.70;;;;;;;;;;4991514;28;20035;-62
2022/05/09 12:53:06;;;;;;;10.10;4.50;;;;;;;;;;4990485;28;20034;-61
2022/05/09 12:55:52;;;;;;;9.10;4.65;;;;;;;;;;4987926;28;20038;-60
2022/05/09 12:58:30;;;;;;;11.20;4.70;;;;;;;;;;4987679;28;20458;-61
2022/05/09 13:01:18;;;;;;;7.22;4.10;;;;;;;;;;4973014;28;20031;-66
2022/05/09 13:03:43;;;;;;;9.38;4.47;;;;;;;;;;4979611;28;20117;-62
2022/05/09 13:06:11;;;;;;;6.45;3.65;;;;;;;;;;4992618;28;20209;-61
2022/05/09 13:08:39;;;;;;;6.70;4.30;;;;;;;;;;4983723;28;20045;-61
2022/05/09 13:11:14;;;;;;;7.97;4.45;;;;;;;;;;4976979;28;20030;-61
2022/05/09 13:13:46;;;;;;;5.97;3.90;;;;;;;;;;4984631;28;20519;-63
2022/05/09 13:16:19;;;;;;;6.78;3.92;;;;;;;;;;4955461;28;20039;-62
2022/05/09 13:18:45;;;;;;;6.63;3.67;;;;;;;;;;4983269;28;20030;-61
2022/05/09 13:21:11;;;;;;;6.63;4.25;;;;;;;;;;4972271;28;20114;-62
2022/05/09 13:23:41;;;;;;;6.43;4.50;;;;;;;;;;4987627;28;20117;-61
2022/05/09 13:26:13;;;;;;;8.82;4.43;;;;;;;;;;4989119;28;20035;-62
2022/05/09 13:28:48;;;;;;;8.88;3.53;;;;;;;;;;4984555;28;20093;-62
2022/05/09 13:31:33;;;;;;;6.30;4.28;;;;;;;;;;4989267;28;20050;-61
2022/05/09 13:33:59;;;;;;;6.32;3.80;;;;;;;;;;4975142;28;20381;-62
2022/05/09 13:36:27;;;;;;;5.68;3.55;;;;;;;;;;4986376;28;20065;-61
2022/05/09 13:38:53;;;;;;;6.47;3.75;;;;;;;;;;4976003;28;20033;-61
2022/05/09 13:41:24;;;;;;;7.28;3.53;;;;;;;;;;4994001;28;20038;-61
2022/05/09 13:43:59;;;;;;;7.35;3.50;;;;;;;;;;4991083;28;20478;-62
2022/05/09 13:46:34;;;;;;;5.88;3.58;;;;;;;;;;4994635;28;20044;-61
2022/05/09 13:49:06;;;;;;;6.10;3.35;;;;;;;;;;4986130;28;20123;-64
2022/05/09 13:51:39;;;;;;;8.32;3.60;;;;;;;;;;4988954;28;20037;-62
2022/05/09 13:54:08;;;;;;;6.68;3.63;;;;;;;;;;4993223;28;20038;-61
2022/05/09 13:56:35;;;;;;;9.23;3.92;;;;;;;;;;4994754;28;20093;-60
2022/05/09 13:59:05;;;;;;;7.20;3.55;;;;;;;;;;4983667;28;20486;-62
2022/05/09 14:01:47;;;;;;;6.73;3.97;;;;;;;;;;4964732;28;20035;-61
2022/05/09 14:04:16;;;;;;;6.20;3.90;;;;;;;;;;4989948;28;20042;-61
2022/05/09 14:06:44;;;;;;;7.10;3.63;;;;;;;;;;4990055;28;20034;-61
2022/05/09 14:09:21;;;;;;;5.28;3.63;;;;;;;;;;4995030;28;20053;-61
2022/05/09 14:12:01;;;;;;;9.10;4.00;;;;;;;;;;4992348;28;20041;-61
2022/05/09 14:14:35;;;;;;;7.82;3.80;;;;;;;;;;4989547;28;20044;-60
2022/05/09 14:17:03;;;;;;;5.68;3.50;;;;;;;;;;4993625;28;20109;-60
2022/05/09 14:19:30;;;;;;;7.32;3.63;;;;;;;;;;4993288;28;20558;-61
2022/05/09 14:22:06;;;;;;;8.65;3.80;;;;;;;;;;4990999;28;20436;-61
2022/05/09 14:24:34;;;;;;;6.18;4.03;;;;;;;;;;4992807;28;20464;-61
2022/05/09 14:30:04;;;;;;;6.85;3.65;;;;;;;;;;4992146;28;20048;-61
2022/05/09 14:32:50;;;;;;;5.45;3.50;;;;;;;;;;4994365;28;20037;-61
2022/05/09 14:35:44;;;;;;;5.88;3.40;;;;;;;;;;4986826;28;20030;-60
2022/05/09 14:38:34;;;;;;;5.03;3.72;;;;;;;;;;4993770;28;20049;-60
2022/05/09 14:41:36;;;;;;;7.53;3.80;;;;;;;;;;4993378;28;20505;-61
2022/05/09 14:44:14;;;;;;;6.70;3.50;;;;;;;;;;4989594;28;20050;-61
2022/05/09 14:47:00;;;;;;;7.72;3.50;;;;;;;;;;4986027;28;20352;-63
2022/05/09 14:49:26;;;;;;;6.22;3.47;;;;;;;;;;4983591;28;20049;-62
2022/05/09 14:52:10;;;;;;;5.32;3.70;;;;;;;;;;4982090;28;20034;-61
2022/05/09 14:54:45;;;;;;;5.88;3.70;;;;;;;;;;4980438;28;20061;-61
2022/05/09 14:57:26;;;;;;;8.18;3.30;;;;;;;;;;4978256;28;20030;-61
2022/05/09 15:00:02;;;;;;;5.22;3.47;;;;;;;;;;4985130;28;20034;-61
2022/05/09 15:02:30;;;;;;;10.48;3.17;;;;;;;;;;4985492;28;20038;-61
2022/05/09 15:04:59;;;;;;;5.82;2.90;;;;;;;;;;4986084;28;20041;-62
2022/05/09 15:07:25;;;;;;;5.75;3.20;;;;;;;;;;4989957;28;20034;-62
2022/05/09 15:09:51;;;;;;;6.60;2.72;;;;;;;;;;4990676;28;20034;-62
2022/05/09 15:12:29;;;;;;;4.50;2.50;;;;;;;;;;4994167;28;20045;-62